sensor_id;sensor_type;location;lat;lon;timestamp;temperature;humidity
37678;DHT22;23517;50.390;8.616;2022-12-11T00:00:08;-1.90;65.30
37678;DHT22;23517;50.390;8.616;2022-12-11T00:02:35;-1.90;65.10
37678;DHT22;23517;50.390;8.616;2022-12-11T00:05:02;-1.80;64.20
37678;DHT22;23517;50.390;8.616;2022-12-11T00:07:29;-1.90;63.40
37678;DHT22;23517;50.390;8.616;2022-12-11T00:09:56;-1.90;64.10
37678;DHT22;23517;50.390;8.616;2022-12-11T00:12:23;-1.90;64.70
37678;DHT22;23517;50.390;8.616;2022-12-11T00:14:49;-1.90;64.90
37678;DHT22;23517;50.390;8.616;2022-12-11T00:17:16;-1.80;65.20
37678;DHT22;23517;50.390;8.616;2022-12-11T00:19:43;-1.70;64.60
37678;DHT22;23517;50.390;8.616;2022-12-11T00:22:09;-1.70;64.10
37678;DHT22;23517;50.390;8.616;2022-12-11T00:24:36;-1.70;63.10
37678;DHT22;23517;50.390;8.616;2022-12-11T00:27:03;-1.60;63.10
37678;DHT22;23517;50.390;8.616;2022-12-11T00:29:30;-1.60;62.90
37678;DHT22;23517;50.390;8.616;2022-12-11T00:31:56;-1.60;62.50
37678;DHT22;23517;50.390;8.616;2022-12-11T00:34:23;-1.60;62.20
37678;DHT22;23517;50.390;8.616;2022-12-11T00:36:50;-1.60;62.10
37678;DHT22;23517;50.390;8.616;2022-12-11T00:39:17;-1.50;62.30
37678;DHT22;23517;50.390;8.616;2022-12-11T00:41:43;-1.50;62.50
37678;DHT22;23517;50.390;8.616;2022-12-11T00:44:12;-1.50;62.20
37678;DHT22;23517;50.390;8.616;2022-12-11T00:46:39;-1.40;62.10
37678;DHT22;23517;50.390;8.616;2022-12-11T00:49:06;-1.40;61.50
37678;DHT22;23517;50.390;8.616;2022-12-11T00:51:32;-1.40;61.20
37678;DHT22;23517;50.390;8.616;2022-12-11T00:53:59;-1.40;61.10
37678;DHT22;23517;50.390;8.616;2022-12-11T00:56:26;-1.40;61.00
37678;DHT22;23517;50.390;8.616;2022-12-11T00:58:52;-1.50;61.10
37678;DHT22;23517;50.390;8.616;2022-12-11T01:01:21;-1.60;61.70
37678;DHT22;23517;50.390;8.616;2022-12-11T01:03:50;-1.70;62.90
37678;DHT22;23517;50.390;8.616;2022-12-11T01:06:24;-1.70;63.70
37678;DHT22;23517;50.390;8.616;2022-12-11T01:08:53;-1.70;63.90
37678;DHT22;23517;50.390;8.616;2022-12-11T01:11:48;-1.70;62.70
37678;DHT22;23517;50.390;8.616;2022-12-11T01:14:15;-1.60;62.50
37678;DHT22;23517;50.390;8.616;2022-12-11T01:16:41;-1.60;63.00
37678;DHT22;23517;50.390;8.616;2022-12-11T01:19:08;-1.50;62.70
37678;DHT22;23517;50.390;8.616;2022-12-11T01:21:35;-1.40;61.40
37678;DHT22;23517;50.390;8.616;2022-12-11T01:24:01;-1.40;62.10
37678;DHT22;23517;50.390;8.616;2022-12-11T01:26:28;-1.50;62.60
37678;DHT22;23517;50.390;8.616;2022-12-11T01:28:56;-1.50;63.80
37678;DHT22;23517;50.390;8.616;2022-12-11T01:31:22;-1.60;64.10
37678;DHT22;23517;50.390;8.616;2022-12-11T01:33:49;-1.60;64.80
37678;DHT22;23517;50.390;8.616;2022-12-11T01:36:18;-1.60;66.00
37678;DHT22;23517;50.390;8.616;2022-12-11T01:38:47;-1.60;66.20
37678;DHT22;23517;50.390;8.616;2022-12-11T01:41:16;-1.60;66.60
37678;DHT22;23517;50.390;8.616;2022-12-11T01:44:07;-1.60;67.10
37678;DHT22;23517;50.390;8.616;2022-12-11T01:46:50;-1.50;68.00
37678;DHT22;23517;50.390;8.616;2022-12-11T01:49:18;-1.40;67.40
37678;DHT22;23517;50.390;8.616;2022-12-11T01:51:54;-1.30;66.90
37678;DHT22;23517;50.390;8.616;2022-12-11T01:54:25;-1.30;65.30
37678;DHT22;23517;50.390;8.616;2022-12-11T01:56:55;-1.30;65.40
37678;DHT22;23517;50.390;8.616;2022-12-11T01:59:28;-1.20;65.30
37678;DHT22;23517;50.390;8.616;2022-12-11T02:02:02;-1.30;65.50
37678;DHT22;23517;50.390;8.616;2022-12-11T02:04:33;-1.30;65.60
37678;DHT22;23517;50.390;8.616;2022-12-11T02:07:02;-1.30;66.00
37678;DHT22;23517;50.390;8.616;2022-12-11T02:09:32;-1.30;65.50
37678;DHT22;23517;50.390;8.616;2022-12-11T02:15:58;-1.30;64.40
37678;DHT22;23517;50.390;8.616;2022-12-11T02:18:41;-1.30;64.50
37678;DHT22;23517;50.390;8.616;2022-12-11T02:21:32;-1.40;65.60
37678;DHT22;23517;50.390;8.616;2022-12-11T02:24:12;-1.40;66.20
37678;DHT22;23517;50.390;8.616;2022-12-11T02:26:59;-1.50;67.00
37678;DHT22;23517;50.390;8.616;2022-12-11T02:30:06;-1.40;67.00
37678;DHT22;23517;50.390;8.616;2022-12-11T02:32:38;-1.40;67.50
37678;DHT22;23517;50.390;8.616;2022-12-11T02:35:20;-1.50;67.50
37678;DHT22;23517;50.390;8.616;2022-12-11T02:37:58;-1.40;67.90
37678;DHT22;23517;50.390;8.616;2022-12-11T02:40:30;-1.40;68.50
37678;DHT22;23517;50.390;8.616;2022-12-11T02:43:11;-1.40;68.70
37678;DHT22;23517;50.390;8.616;2022-12-11T02:45:41;-1.40;68.90
37678;DHT22;23517;50.390;8.616;2022-12-11T02:48:09;-1.40;69.20
37678;DHT22;23517;50.390;8.616;2022-12-11T02:50:43;-1.30;68.60
37678;DHT22;23517;50.390;8.616;2022-12-11T02:53:18;-1.30;68.70
37678;DHT22;23517;50.390;8.616;2022-12-11T02:55:49;-1.30;68.60
37678;DHT22;23517;50.390;8.616;2022-12-11T02:58:25;-1.30;68.40
37678;DHT22;23517;50.390;8.616;2022-12-11T03:00:53;-1.30;68.20
37678;DHT22;23517;50.390;8.616;2022-12-11T03:03:20;-1.20;68.20
37678;DHT22;23517;50.390;8.616;2022-12-11T03:05:47;-1.20;67.80
37678;DHT22;23517;50.390;8.616;2022-12-11T03:08:14;-1.30;68.00
37678;DHT22;23517;50.390;8.616;2022-12-11T03:10:44;-1.30;68.80
37678;DHT22;23517;50.390;8.616;2022-12-11T03:13:12;-1.40;69.90
37678;DHT22;23517;50.390;8.616;2022-12-11T03:26:58;-1.30;70.10
37678;DHT22;23517;50.390;8.616;2022-12-11T03:29:55;-1.20;69.60
37678;DHT22;23517;50.390;8.616;2022-12-11T03:32:37;-1.10;68.00
37678;DHT22;23517;50.390;8.616;2022-12-11T03:35:33;-1.10;67.70
37678;DHT22;23517;50.390;8.616;2022-12-11T03:38:12;-1.10;67.40
37678;DHT22;23517;50.390;8.616;2022-12-11T03:40:45;-1.10;67.40
37678;DHT22;23517;50.390;8.616;2022-12-11T03:43:15;-1.10;67.40
37678;DHT22;23517;50.390;8.616;2022-12-11T03:45:43;-1.10;67.50
37678;DHT22;23517;50.390;8.616;2022-12-11T03:48:13;-1.10;67.70
37678;DHT22;23517;50.390;8.616;2022-12-11T03:50:44;-1.10;68.30
37678;DHT22;23517;50.390;8.616;2022-12-11T03:53:16;-1.20;69.00
37678;DHT22;23517;50.390;8.616;2022-12-11T03:55:44;-1.20;69.80
37678;DHT22;23517;50.390;8.616;2022-12-11T03:58:11;-1.20;70.10
37678;DHT22;23517;50.390;8.616;2022-12-11T04:00:38;-1.20;70.10
37678;DHT22;23517;50.390;8.616;2022-12-11T04:03:05;-1.20;70.40
37678;DHT22;23517;50.390;8.616;2022-12-11T04:05:43;-1.20;70.30
37678;DHT22;23517;50.390;8.616;2022-12-11T04:08:16;-1.20;71.10
37678;DHT22;23517;50.390;8.616;2022-12-11T04:10:44;-1.20;72.10
37678;DHT22;23517;50.390;8.616;2022-12-11T04:13:11;-1.20;71.80
37678;DHT22;23517;50.390;8.616;2022-12-11T04:15:39;-1.20;71.60
37678;DHT22;23517;50.390;8.616;2022-12-11T04:18:07;-1.20;71.60
37678;DHT22;23517;50.390;8.616;2022-12-11T04:20:54;-1.20;71.60
37678;DHT22;23517;50.390;8.616;2022-12-11T04:23:39;-1.20;72.10
37678;DHT22;23517;50.390;8.616;2022-12-11T04:26:25;-1.10;72.50
37678;DHT22;23517;50.390;8.616;2022-12-11T04:28:52;-1.10;71.80
37678;DHT22;23517;50.390;8.616;2022-12-11T04:31:20;-1.10;71.50
37678;DHT22;23517;50.390;8.616;2022-12-11T04:33:48;-1.10;71.30
37678;DHT22;23517;50.390;8.616;2022-12-11T04:36:15;-1.10;71.50
37678;DHT22;23517;50.390;8.616;2022-12-11T04:38:42;-1.00;71.40
37678;DHT22;23517;50.390;8.616;2022-12-11T04:41:13;-1.00;71.80
37678;DHT22;23517;50.390;8.616;2022-12-11T04:43:41;-0.90;72.30
37678;DHT22;23517;50.390;8.616;2022-12-11T04:46:22;-0.80;71.20
37678;DHT22;23517;50.390;8.616;2022-12-11T04:48:51;-0.80;70.70
37678;DHT22;23517;50.390;8.616;2022-12-11T04:51:24;-0.80;70.00
37678;DHT22;23517;50.390;8.616;2022-12-11T04:53:53;-0.80;70.40
37678;DHT22;23517;50.390;8.616;2022-12-11T04:56:22;-0.90;69.20
37678;DHT22;23517;50.390;8.616;2022-12-11T04:58:48;-0.90;69.50
37678;DHT22;23517;50.390;8.616;2022-12-11T05:01:18;-0.90;70.20
37678;DHT22;23517;50.390;8.616;2022-12-11T05:03:46;-0.90;69.70
37678;DHT22;23517;50.390;8.616;2022-12-11T05:06:14;-0.90;70.40
37678;DHT22;23517;50.390;8.616;2022-12-11T05:08:44;-1.00;70.90
37678;DHT22;23517;50.390;8.616;2022-12-11T05:11:13;-1.00;71.60
37678;DHT22;23517;50.390;8.616;2022-12-11T05:13:41;-0.90;70.90
37678;DHT22;23517;50.390;8.616;2022-12-11T05:16:10;-0.90;71.80
37678;DHT22;23517;50.390;8.616;2022-12-11T05:18:40;-0.90;71.30
37678;DHT22;23517;50.390;8.616;2022-12-11T05:21:10;-0.90;71.50
37678;DHT22;23517;50.390;8.616;2022-12-11T05:23:38;-0.90;72.10
37678;DHT22;23517;50.390;8.616;2022-12-11T05:26:16;-0.80;70.40
37678;DHT22;23517;50.390;8.616;2022-12-11T05:28:44;-0.90;70.90
37678;DHT22;23517;50.390;8.616;2022-12-11T05:31:16;-0.90;71.60
37678;DHT22;23517;50.390;8.616;2022-12-11T05:33:45;-1.00;71.80
37678;DHT22;23517;50.390;8.616;2022-12-11T05:36:38;-1.00;70.10
37678;DHT22;23517;50.390;8.616;2022-12-11T05:39:05;-1.00;70.00
37678;DHT22;23517;50.390;8.616;2022-12-11T05:41:31;-1.00;70.10
37678;DHT22;23517;50.390;8.616;2022-12-11T05:43:58;-1.10;70.70
37678;DHT22;23517;50.390;8.616;2022-12-11T05:46:28;-1.20;70.40
37678;DHT22;23517;50.390;8.616;2022-12-11T05:49:00;-1.30;70.80
37678;DHT22;23517;50.390;8.616;2022-12-11T05:51:28;-1.30;72.20
37678;DHT22;23517;50.390;8.616;2022-12-11T05:53:56;-1.30;72.60
37678;DHT22;23517;50.390;8.616;2022-12-11T05:56:29;-1.40;72.80
37678;DHT22;23517;50.390;8.616;2022-12-11T05:58:59;-1.40;73.80
37678;DHT22;23517;50.390;8.616;2022-12-11T06:01:30;-1.30;73.80
37678;DHT22;23517;50.390;8.616;2022-12-11T06:04:05;-1.30;73.20
37678;DHT22;23517;50.390;8.616;2022-12-11T06:06:33;-1.30;73.20
37678;DHT22;23517;50.390;8.616;2022-12-11T06:09:03;-1.30;72.90
37678;DHT22;23517;50.390;8.616;2022-12-11T06:11:31;-1.30;73.40
37678;DHT22;23517;50.390;8.616;2022-12-11T06:14:00;-1.30;72.50
37678;DHT22;23517;50.390;8.616;2022-12-11T06:16:28;-1.30;73.00
37678;DHT22;23517;50.390;8.616;2022-12-11T06:18:54;-1.30;72.20
37678;DHT22;23517;50.390;8.616;2022-12-11T06:23:59;-1.30;71.40
37678;DHT22;23517;50.390;8.616;2022-12-11T06:26:28;-1.30;71.80
37678;DHT22;23517;50.390;8.616;2022-12-11T06:28:55;-1.30;73.40
37678;DHT22;23517;50.390;8.616;2022-12-11T06:31:22;-1.30;74.00
37678;DHT22;23517;50.390;8.616;2022-12-11T06:33:49;-1.30;73.10
37678;DHT22;23517;50.390;8.616;2022-12-11T06:36:18;-1.20;71.80
37678;DHT22;23517;50.390;8.616;2022-12-11T06:38:46;-1.30;72.30
37678;DHT22;23517;50.390;8.616;2022-12-11T06:41:13;-1.30;71.70
37678;DHT22;23517;50.390;8.616;2022-12-11T06:43:41;-1.30;71.40
37678;DHT22;23517;50.390;8.616;2022-12-11T06:46:14;-1.30;72.40
37678;DHT22;23517;50.390;8.616;2022-12-11T06:48:43;-1.30;71.90
37678;DHT22;23517;50.390;8.616;2022-12-11T06:51:13;-1.40;71.80
37678;DHT22;23517;50.390;8.616;2022-12-11T06:53:41;-1.30;72.60
37678;DHT22;23517;50.390;8.616;2022-12-11T06:56:12;-1.40;73.00
37678;DHT22;23517;50.390;8.616;2022-12-11T06:58:41;-1.30;73.20
37678;DHT22;23517;50.390;8.616;2022-12-11T07:01:17;-1.40;72.30
37678;DHT22;23517;50.390;8.616;2022-12-11T07:03:46;-1.40;73.50
37678;DHT22;23517;50.390;8.616;2022-12-11T07:06:13;-1.30;73.00
37678;DHT22;23517;50.390;8.616;2022-12-11T07:08:40;-1.30;73.40
37678;DHT22;23517;50.390;8.616;2022-12-11T07:11:12;-1.30;73.90
37678;DHT22;23517;50.390;8.616;2022-12-11T07:13:40;-1.30;73.40
37678;DHT22;23517;50.390;8.616;2022-12-11T07:16:08;-1.30;72.10
37678;DHT22;23517;50.390;8.616;2022-12-11T07:18:41;-1.40;73.40
37678;DHT22;23517;50.390;8.616;2022-12-11T07:21:12;-1.40;73.90
37678;DHT22;23517;50.390;8.616;2022-12-11T07:23:39;-1.40;74.00
37678;DHT22;23517;50.390;8.616;2022-12-11T07:26:12;-1.40;72.30
37678;DHT22;23517;50.390;8.616;2022-12-11T07:28:41;-1.40;72.90
37678;DHT22;23517;50.390;8.616;2022-12-11T07:31:09;-1.40;73.70
37678;DHT22;23517;50.390;8.616;2022-12-11T07:33:38;-1.30;73.20
37678;DHT22;23517;50.390;8.616;2022-12-11T07:36:09;-1.40;74.10
37678;DHT22;23517;50.390;8.616;2022-12-11T07:38:37;-1.50;74.80
37678;DHT22;23517;50.390;8.616;2022-12-11T07:41:07;-1.30;74.00
37678;DHT22;23517;50.390;8.616;2022-12-11T07:43:37;-1.40;71.70
37678;DHT22;23517;50.390;8.616;2022-12-11T07:46:11;-1.30;72.20
37678;DHT22;23517;50.390;8.616;2022-12-11T07:48:40;-1.30;70.70
37678;DHT22;23517;50.390;8.616;2022-12-11T07:53:35;-1.20;70.70
37678;DHT22;23517;50.390;8.616;2022-12-11T07:56:02;-1.20;69.50
37678;DHT22;23517;50.390;8.616;2022-12-11T07:58:29;-1.20;70.50
37678;DHT22;23517;50.390;8.616;2022-12-11T08:00:55;-1.20;70.30
37678;DHT22;23517;50.390;8.616;2022-12-11T08:03:23;-1.10;70.60
37678;DHT22;23517;50.390;8.616;2022-12-11T08:05:51;-1.10;69.30
37678;DHT22;23517;50.390;8.616;2022-12-11T08:08:21;-1.10;70.00
37678;DHT22;23517;50.390;8.616;2022-12-11T08:10:48;-1.20;70.50
37678;DHT22;23517;50.390;8.616;2022-12-11T08:13:15;-1.20;71.40
37678;DHT22;23517;50.390;8.616;2022-12-11T08:15:42;-1.20;69.10
37678;DHT22;23517;50.390;8.616;2022-12-11T08:18:08;-1.10;68.40
37678;DHT22;23517;50.390;8.616;2022-12-11T08:20:37;-1.10;68.40
37678;DHT22;23517;50.390;8.616;2022-12-11T08:23:04;-1.20;68.20
37678;DHT22;23517;50.390;8.616;2022-12-11T08:25:31;-1.20;68.20
37678;DHT22;23517;50.390;8.616;2022-12-11T08:27:58;-1.10;68.90
37678;DHT22;23517;50.390;8.616;2022-12-11T08:30:24;-1.10;70.20
37678;DHT22;23517;50.390;8.616;2022-12-11T08:32:51;-1.00;69.10
37678;DHT22;23517;50.390;8.616;2022-12-11T08:35:18;-1.00;69.10
37678;DHT22;23517;50.390;8.616;2022-12-11T08:37:44;-1.00;68.10
37678;DHT22;23517;50.390;8.616;2022-12-11T08:40:11;-1.00;67.80
37678;DHT22;23517;50.390;8.616;2022-12-11T08:42:38;-1.00;67.30
37678;DHT22;23517;50.390;8.616;2022-12-11T08:45:05;-1.00;67.80
37678;DHT22;23517;50.390;8.616;2022-12-11T08:47:32;-1.00;67.90
37678;DHT22;23517;50.390;8.616;2022-12-11T08:49:59;-1.00;69.30
37678;DHT22;23517;50.390;8.616;2022-12-11T08:52:27;-1.00;67.80
37678;DHT22;23517;50.390;8.616;2022-12-11T08:54:57;-0.90;67.90
37678;DHT22;23517;50.390;8.616;2022-12-11T08:57:23;-0.80;66.20
37678;DHT22;23517;50.390;8.616;2022-12-11T08:59:50;-0.70;65.00
37678;DHT22;23517;50.390;8.616;2022-12-11T09:02:16;-0.70;62.60
37678;DHT22;23517;50.390;8.616;2022-12-11T09:04:43;-0.60;62.50
37678;DHT22;23517;50.390;8.616;2022-12-11T09:07:10;-0.60;61.10
37678;DHT22;23517;50.390;8.616;2022-12-11T09:09:37;-0.70;62.00
37678;DHT22;23517;50.390;8.616;2022-12-11T09:12:04;-0.70;63.80
37678;DHT22;23517;50.390;8.616;2022-12-11T09:14:31;-0.70;63.00
37678;DHT22;23517;50.390;8.616;2022-12-11T09:16:58;-0.60;63.40
37678;DHT22;23517;50.390;8.616;2022-12-11T09:19:24;-0.60;60.40
37678;DHT22;23517;50.390;8.616;2022-12-11T09:21:57;-0.70;62.10
37678;DHT22;23517;50.390;8.616;2022-12-11T09:24:24;-0.60;62.20
37678;DHT22;23517;50.390;8.616;2022-12-11T09:26:51;-0.60;62.70
37678;DHT22;23517;50.390;8.616;2022-12-11T09:29:17;-0.50;61.90
37678;DHT22;23517;50.390;8.616;2022-12-11T09:31:44;-0.40;60.30
37678;DHT22;23517;50.390;8.616;2022-12-11T09:34:12;-0.40;59.60
37678;DHT22;23517;50.390;8.616;2022-12-11T09:36:42;-0.40;60.90
37678;DHT22;23517;50.390;8.616;2022-12-11T09:39:11;-0.30;60.40
37678;DHT22;23517;50.390;8.616;2022-12-11T09:42:05;-0.30;61.00
37678;DHT22;23517;50.390;8.616;2022-12-11T09:44:53;-0.30;60.20
37678;DHT22;23517;50.390;8.616;2022-12-11T09:47:31;-0.30;60.60
37678;DHT22;23517;50.390;8.616;2022-12-11T09:55:24;-0.30;60.60
37678;DHT22;23517;50.390;8.616;2022-12-11T10:00:40;-0.30;61.50
37678;DHT22;23517;50.390;8.616;2022-12-11T10:06:28;-0.20;60.80
37678;DHT22;23517;50.390;8.616;2022-12-11T10:09:20;-0.20;60.80
37678;DHT22;23517;50.390;8.616;2022-12-11T10:17:59;-0.10;61.70
37678;DHT22;23517;50.390;8.616;2022-12-11T10:20:33;-0.20;61.60
37678;DHT22;23517;50.390;8.616;2022-12-11T10:23:12;-0.30;62.30
37678;DHT22;23517;50.390;8.616;2022-12-11T10:26:17;-0.20;61.10
37678;DHT22;23517;50.390;8.616;2022-12-11T10:28:45;-0.30;61.20
37678;DHT22;23517;50.390;8.616;2022-12-11T10:34:00;-0.50;63.30
37678;DHT22;23517;50.390;8.616;2022-12-11T10:36:37;-0.40;63.50
37678;DHT22;23517;50.390;8.616;2022-12-11T10:39:13;-0.40;63.40
37678;DHT22;23517;50.390;8.616;2022-12-11T10:41:44;-0.40;64.30
37678;DHT22;23517;50.390;8.616;2022-12-11T10:44:17;-0.30;63.10
37678;DHT22;23517;50.390;8.616;2022-12-11T10:46:47;-0.40;62.60
37678;DHT22;23517;50.390;8.616;2022-12-11T10:49:26;-0.40;63.20
37678;DHT22;23517;50.390;8.616;2022-12-11T10:51:56;-0.40;64.10
37678;DHT22;23517;50.390;8.616;2022-12-11T10:54:30;-0.40;64.00
37678;DHT22;23517;50.390;8.616;2022-12-11T10:57:00;-0.40;64.90
37678;DHT22;23517;50.390;8.616;2022-12-11T10:59:38;-0.30;64.60
37678;DHT22;23517;50.390;8.616;2022-12-11T11:02:23;-0.30;64.30
37678;DHT22;23517;50.390;8.616;2022-12-11T11:04:54;-0.40;64.70
37678;DHT22;23517;50.390;8.616;2022-12-11T11:07:25;-0.30;64.40
37678;DHT22;23517;50.390;8.616;2022-12-11T11:12:41;-0.40;64.30
37678;DHT22;23517;50.390;8.616;2022-12-11T11:15:19;-0.50;64.90
37678;DHT22;23517;50.390;8.616;2022-12-11T11:17:51;-0.50;65.20
37678;DHT22;23517;50.390;8.616;2022-12-11T11:20:27;-0.40;63.80
37678;DHT22;23517;50.390;8.616;2022-12-11T11:22:59;-0.40;64.20
37678;DHT22;23517;50.390;8.616;2022-12-11T11:25:28;-0.50;63.90
37678;DHT22;23517;50.390;8.616;2022-12-11T11:28:01;-0.50;64.10
37678;DHT22;23517;50.390;8.616;2022-12-11T11:30:38;-0.50;64.90
37678;DHT22;23517;50.390;8.616;2022-12-11T11:33:24;-0.50;63.00
37678;DHT22;23517;50.390;8.616;2022-12-11T11:36:02;-0.40;61.70
37678;DHT22;23517;50.390;8.616;2022-12-11T11:38:37;-0.40;60.40
37678;DHT22;23517;50.390;8.616;2022-12-11T11:43:51;-0.50;59.20
37678;DHT22;23517;50.390;8.616;2022-12-11T11:50:23;-0.60;61.50
37678;DHT22;23517;50.390;8.616;2022-12-11T11:52:37;-0.50;61.50
37678;DHT22;23517;50.390;8.616;2022-12-11T11:55:16;-0.50;60.60
37678;DHT22;23517;50.390;8.616;2022-12-11T11:58:15;-0.50;60.70
37678;DHT22;23517;50.390;8.616;2022-12-11T12:00:44;-0.40;61.00
37678;DHT22;23517;50.390;8.616;2022-12-11T12:03:17;-0.30;59.80
37678;DHT22;23517;50.390;8.616;2022-12-11T12:08:40;-0.40;60.00
37678;DHT22;23517;50.390;8.616;2022-12-11T12:12:02;-0.50;61.30
37678;DHT22;23517;50.390;8.616;2022-12-11T12:14:39;-0.50;60.90
37678;DHT22;23517;50.390;8.616;2022-12-11T12:17:41;-0.40;61.10
37678;DHT22;23517;50.390;8.616;2022-12-11T12:26:29;-0.50;61.30
37678;DHT22;23517;50.390;8.616;2022-12-11T12:35:29;-0.30;60.40
37678;DHT22;23517;50.390;8.616;2022-12-11T12:38:07;-0.20;60.50
37678;DHT22;23517;50.390;8.616;2022-12-11T12:47:04;-0.30;60.10
37678;DHT22;23517;50.390;8.616;2022-12-11T12:49:42;-0.20;60.60
37678;DHT22;23517;50.390;8.616;2022-12-11T12:52:17;-0.20;60.60
37678;DHT22;23517;50.390;8.616;2022-12-11T12:54:53;-0.20;60.20
37678;DHT22;23517;50.390;8.616;2022-12-11T12:57:44;-0.10;60.50
37678;DHT22;23517;50.390;8.616;2022-12-11T13:00:35;-0.20;59.70
37678;DHT22;23517;50.390;8.616;2022-12-11T13:03:16;-0.20;59.40
37678;DHT22;23517;50.390;8.616;2022-12-11T13:06:02;-0.30;59.40
37678;DHT22;23517;50.390;8.616;2022-12-11T13:11:19;-0.20;60.50
37678;DHT22;23517;50.390;8.616;2022-12-11T13:13:48;-0.10;59.80
37678;DHT22;23517;50.390;8.616;2022-12-11T13:16:36;-0.10;59.60
37678;DHT22;23517;50.390;8.616;2022-12-11T13:29:51;-0.10;59.50
37678;DHT22;23517;50.390;8.616;2022-12-11T13:33:13;-0.10;59.20
37678;DHT22;23517;50.390;8.616;2022-12-11T13:35:41;0.00;57.40
37678;DHT22;23517;50.390;8.616;2022-12-11T13:38:18;0.00;57.00
37678;DHT22;23517;50.390;8.616;2022-12-11T13:40:52;-0.10;57.40
37678;DHT22;23517;50.390;8.616;2022-12-11T13:43:25;-0.10;57.70
37678;DHT22;23517;50.390;8.616;2022-12-11T13:45:56;0.00;57.60
37678;DHT22;23517;50.390;8.616;2022-12-11T13:48:36;0.10;56.50
37678;DHT22;23517;50.390;8.616;2022-12-11T13:51:05;0.20;55.20
37678;DHT22;23517;50.390;8.616;2022-12-11T13:53:32;0.20;55.60
37678;DHT22;23517;50.390;8.616;2022-12-11T13:56:04;0.30;54.50
37678;DHT22;23517;50.390;8.616;2022-12-11T13:58:34;0.30;54.00
37678;DHT22;23517;50.390;8.616;2022-12-11T14:01:19;0.20;54.30
37678;DHT22;23517;50.390;8.616;2022-12-11T14:03:56;0.10;54.80
37678;DHT22;23517;50.390;8.616;2022-12-11T14:06:27;0.10;54.40
37678;DHT22;23517;50.390;8.616;2022-12-11T14:08:58;0.10;55.40
37678;DHT22;23517;50.390;8.616;2022-12-11T14:11:29;0.10;55.30
37678;DHT22;23517;50.390;8.616;2022-12-11T14:13:59;0.10;55.00
37678;DHT22;23517;50.390;8.616;2022-12-11T14:16:27;0.10;55.30
37678;DHT22;23517;50.390;8.616;2022-12-11T14:19:02;0.10;55.80
37678;DHT22;23517;50.390;8.616;2022-12-11T14:21:31;0.10;55.90
37678;DHT22;23517;50.390;8.616;2022-12-11T14:24:01;0.10;56.00
37678;DHT22;23517;50.390;8.616;2022-12-11T14:26:31;0.00;55.60
37678;DHT22;23517;50.390;8.616;2022-12-11T14:28:59;0.00;56.60
37678;DHT22;23517;50.390;8.616;2022-12-11T14:31:32;-0.10;56.40
37678;DHT22;23517;50.390;8.616;2022-12-11T14:34:06;-0.10;56.60
37678;DHT22;23517;50.390;8.616;2022-12-11T14:36:38;-0.10;56.60
37678;DHT22;23517;50.390;8.616;2022-12-11T14:39:15;-0.10;56.50
37678;DHT22;23517;50.390;8.616;2022-12-11T14:42:03;-0.10;55.90
37678;DHT22;23517;50.390;8.616;2022-12-11T14:47:42;-0.10;57.10
37678;DHT22;23517;50.390;8.616;2022-12-11T14:50:26;-0.10;57.50
37678;DHT22;23517;50.390;8.616;2022-12-11T14:53:07;0.00;57.80
37678;DHT22;23517;50.390;8.616;2022-12-11T14:55:39;0.00;56.90
37678;DHT22;23517;50.390;8.616;2022-12-11T14:58:15;0.00;56.80
37678;DHT22;23517;50.390;8.616;2022-12-11T15:00:58;0.00;57.10
37678;DHT22;23517;50.390;8.616;2022-12-11T15:03:35;-0.10;57.20
37678;DHT22;23517;50.390;8.616;2022-12-11T15:06:25;-0.10;57.40
37678;DHT22;23517;50.390;8.616;2022-12-11T15:08:54;-0.10;58.20
37678;DHT22;23517;50.390;8.616;2022-12-11T15:11:23;-0.20;57.70
37678;DHT22;23517;50.390;8.616;2022-12-11T15:13:58;-0.10;58.00
37678;DHT22;23517;50.390;8.616;2022-12-11T15:16:30;-0.20;58.80
37678;DHT22;23517;50.390;8.616;2022-12-11T15:18:58;-0.20;59.20
37678;DHT22;23517;50.390;8.616;2022-12-11T15:21:30;-0.20;59.10
37678;DHT22;23517;50.390;8.616;2022-12-11T15:24:01;-0.10;59.00
37678;DHT22;23517;50.390;8.616;2022-12-11T15:26:55;-0.10;58.90
37678;DHT22;23517;50.390;8.616;2022-12-11T15:29:35;-0.10;58.80
37678;DHT22;23517;50.390;8.616;2022-12-11T15:32:14;-0.10;58.80
37678;DHT22;23517;50.390;8.616;2022-12-11T15:34:58;0.00;58.80
37678;DHT22;23517;50.390;8.616;2022-12-11T15:37:34;-0.10;58.50
37678;DHT22;23517;50.390;8.616;2022-12-11T15:40:02;0.00;58.10
37678;DHT22;23517;50.390;8.616;2022-12-11T15:42:35;0.00;58.00
37678;DHT22;23517;50.390;8.616;2022-12-11T15:45:07;0.00;58.20
37678;DHT22;23517;50.390;8.616;2022-12-11T15:47:37;0.00;58.30
37678;DHT22;23517;50.390;8.616;2022-12-11T15:50:25;-0.10;58.20
37678;DHT22;23517;50.390;8.616;2022-12-11T15:52:55;-0.10;58.50
37678;DHT22;23517;50.390;8.616;2022-12-11T15:55:24;0.00;58.20
37678;DHT22;23517;50.390;8.616;2022-12-11T15:57:55;0.00;58.30
37678;DHT22;23517;50.390;8.616;2022-12-11T16:00:24;-0.10;58.50
37678;DHT22;23517;50.390;8.616;2022-12-11T16:02:53;-0.10;58.90
37678;DHT22;23517;50.390;8.616;2022-12-11T16:05:21;-0.20;59.50
37678;DHT22;23517;50.390;8.616;2022-12-11T16:07:48;-0.20;60.10
37678;DHT22;23517;50.390;8.616;2022-12-11T16:10:18;-0.30;61.30
37678;DHT22;23517;50.390;8.616;2022-12-11T16:12:45;-0.20;61.90
37678;DHT22;23517;50.390;8.616;2022-12-11T16:15:15;-0.20;62.00
37678;DHT22;23517;50.390;8.616;2022-12-11T16:17:49;-0.30;61.90
37678;DHT22;23517;50.390;8.616;2022-12-11T16:20:16;-0.30;62.30
37678;DHT22;23517;50.390;8.616;2022-12-11T16:22:42;-0.30;62.70
37678;DHT22;23517;50.390;8.616;2022-12-11T16:25:10;-0.30;62.90
37678;DHT22;23517;50.390;8.616;2022-12-11T16:27:37;-0.30;63.10
37678;DHT22;23517;50.390;8.616;2022-12-11T16:30:05;-0.30;63.10
37678;DHT22;23517;50.390;8.616;2022-12-11T16:32:32;-0.20;63.60
37678;DHT22;23517;50.390;8.616;2022-12-11T16:34:59;-0.30;63.80
37678;DHT22;23517;50.390;8.616;2022-12-11T16:37:26;-0.30;63.40
37678;DHT22;23517;50.390;8.616;2022-12-11T16:39:53;-0.30;63.40
37678;DHT22;23517;50.390;8.616;2022-12-11T16:42:19;-0.30;63.60
37678;DHT22;23517;50.390;8.616;2022-12-11T16:44:46;-0.30;63.80
37678;DHT22;23517;50.390;8.616;2022-12-11T16:47:17;-0.30;64.10
37678;DHT22;23517;50.390;8.616;2022-12-11T16:49:43;-0.30;63.80
37678;DHT22;23517;50.390;8.616;2022-12-11T16:52:11;-0.30;63.60
37678;DHT22;23517;50.390;8.616;2022-12-11T16:54:44;-0.30;63.40
37678;DHT22;23517;50.390;8.616;2022-12-11T16:57:11;-0.30;63.30
37678;DHT22;23517;50.390;8.616;2022-12-11T16:59:37;-0.40;64.00
37678;DHT22;23517;50.390;8.616;2022-12-11T17:02:04;-0.40;64.80
37678;DHT22;23517;50.390;8.616;2022-12-11T17:04:31;-0.50;66.00
37678;DHT22;23517;50.390;8.616;2022-12-11T17:06:58;-0.40;65.90
37678;DHT22;23517;50.390;8.616;2022-12-11T17:09:24;-0.40;65.90
37678;DHT22;23517;50.390;8.616;2022-12-11T17:11:51;-0.40;65.80
37678;DHT22;23517;50.390;8.616;2022-12-11T17:14:18;-0.30;64.90
37678;DHT22;23517;50.390;8.616;2022-12-11T17:16:45;-0.30;64.50
37678;DHT22;23517;50.390;8.616;2022-12-11T17:19:13;-0.30;64.40
37678;DHT22;23517;50.390;8.616;2022-12-11T17:21:40;-0.30;64.50
37678;DHT22;23517;50.390;8.616;2022-12-11T17:24:12;-0.20;64.40
37678;DHT22;23517;50.390;8.616;2022-12-11T17:26:39;-0.30;64.50
37678;DHT22;23517;50.390;8.616;2022-12-11T17:29:06;-0.20;64.30